createdAt,value
2018-07-20T00:00:44.065Z,15.14
2018-07-20T00:01:44.104Z,14.98
2018-07-20T00:02:44.142Z,15.10
2018-07-20T00:03:44.180Z,15.07
2018-07-20T00:04:44.217Z,15.03
2018-07-20T00:05:44.278Z,14.99
2018-07-20T00:06:44.295Z,14.94
2018-07-20T00:07:44.332Z,14.91
2018-07-20T00:08:44.372Z,14.83
2018-07-20T00:09:44.406Z,14.84
2018-07-20T00:10:44.446Z,14.84
2018-07-20T00:11:44.484Z,14.83
2018-07-20T00:12:44.523Z,14.80
2018-07-20T00:13:44.575Z,14.77
2018-07-20T00:14:44.598Z,14.72
2018-07-20T00:15:44.634Z,14.72
2018-07-20T00:16:44.694Z,14.75
2018-07-20T00:17:44.711Z,14.65
2018-07-20T00:18:44.748Z,14.68
2018-07-20T00:19:44.789Z,14.64
2018-07-20T00:20:44.825Z,14.64
2018-07-20T00:21:44.860Z,14.69
2018-07-20T00:22:44.898Z,14.54
2018-07-20T00:23:44.936Z,14.58
2018-07-20T00:24:45.123Z,14.50
2018-07-20T00:25:45.013Z,14.51
2018-07-20T00:26:45.051Z,14.57
2018-07-20T00:27:45.088Z,14.52
2018-07-20T00:28:45.124Z,14.58
2018-07-20T00:29:45.163Z,14.57
2018-07-20T00:30:45.202Z,14.51
2018-07-20T00:31:45.237Z,14.52
2018-07-20T00:32:45.277Z,14.47
2018-07-20T00:33:45.315Z,14.52
2018-07-20T00:34:45.353Z,14.51
2018-07-20T00:35:45.391Z,14.36
2018-07-20T00:36:45.428Z,14.46
2018-07-20T00:37:45.464Z,14.36
2018-07-20T00:38:45.504Z,14.39
2018-07-20T00:39:45.545Z,14.32
2018-07-20T00:40:45.579Z,14.35
2018-07-20T00:41:45.615Z,14.28
2018-07-20T00:42:45.663Z,14.29
2018-07-20T00:43:45.693Z,14.28
2018-07-20T00:44:45.729Z,14.24
2018-07-20T00:45:45.768Z,14.35
2018-07-20T00:46:45.813Z,14.21
2018-07-20T00:47:45.842Z,14.22
2018-07-20T00:48:45.884Z,14.21
2018-07-20T00:49:45.919Z,14.12
2018-07-20T00:50:45.956Z,14.06
2018-07-20T00:51:45.997Z,14.04
2018-07-20T00:52:46.031Z,14.09
2018-07-20T00:53:46.075Z,14.06
2018-07-20T00:54:46.109Z,14.09
2018-07-20T00:55:46.143Z,14.07
2018-07-20T00:56:46.178Z,13.99
2018-07-20T00:57:46.225Z,14.07
2018-07-20T00:58:46.257Z,14.04
2018-07-20T00:59:46.292Z,14.04
2018-07-20T01:00:46.329Z,13.99
2018-07-20T01:01:46.367Z,14.06
2018-07-20T01:02:46.414Z,14.06
2018-07-20T01:03:46.444Z,13.96
2018-07-20T01:04:46.481Z,14.00
2018-07-20T01:05:46.525Z,14.09
2018-07-20T01:06:46.563Z,14.00
2018-07-20T01:07:46.593Z,14.00
2018-07-20T01:08:46.630Z,13.89
2018-07-20T01:09:46.669Z,13.99
2018-07-20T01:10:46.708Z,13.81
2018-07-20T01:11:46.841Z,13.97
2018-07-20T01:12:46.779Z,13.95
2018-07-20T01:13:46.817Z,13.97
2018-07-20T01:14:46.856Z,13.85
2018-07-20T01:15:46.895Z,13.82
2018-07-20T01:16:46.928Z,13.82
2018-07-20T01:17:46.966Z,13.84
2018-07-20T01:18:47.005Z,13.89
2018-07-20T01:19:47.043Z,13.85
2018-07-20T01:20:47.078Z,13.79
2018-07-20T01:21:47.119Z,13.73
2018-07-20T01:22:47.158Z,13.71
2018-07-20T01:23:47.195Z,13.71
2018-07-20T01:24:47.231Z,13.71
2018-07-20T01:25:47.265Z,13.66
2018-07-20T01:26:47.356Z,13.73
2018-07-20T01:27:47.345Z,13.70
2018-07-20T01:28:47.377Z,13.62
2018-07-20T01:29:47.413Z,13.66
2018-07-20T01:30:47.452Z,13.63
2018-07-20T01:31:47.490Z,13.52
2018-07-20T01:32:47.527Z,13.59
2018-07-20T01:33:47.565Z,13.60
2018-07-20T01:34:47.605Z,13.60
2018-07-20T01:35:47.637Z,13.54
2018-07-20T01:36:47.678Z,13.57
2018-07-20T01:37:47.714Z,13.57
2018-07-20T01:38:47.751Z,13.54
2018-07-20T01:39:47.789Z,13.60
2018-07-20T01:40:47.825Z,13.51
2018-07-20T01:41:47.863Z,13.52
2018-07-20T01:42:47.900Z,13.42
2018-07-20T01:43:47.938Z,13.44
2018-07-20T01:44:47.974Z,13.48
2018-07-20T01:45:48.016Z,13.54
2018-07-20T01:46:48.050Z,13.49
2018-07-20T01:47:48.087Z,13.55
2018-07-20T01:48:48.124Z,13.49
2018-07-20T01:49:48.162Z,13.52
2018-07-20T01:50:48.198Z,13.51
2018-07-20T01:51:48.245Z,13.54
2018-07-20T01:52:48.273Z,13.49
2018-07-20T01:53:48.309Z,13.55
2018-07-20T01:54:48.347Z,13.45
2018-07-20T01:55:48.386Z,13.42
2018-07-20T01:56:48.430Z,13.46
2018-07-20T01:57:48.467Z,13.49
2018-07-20T01:58:48.494Z,13.55
2018-07-20T01:59:48.543Z,13.48
2018-07-20T02:00:48.569Z,13.41
2018-07-20T02:01:48.606Z,13.44
2018-07-20T02:02:48.645Z,13.46
2018-07-20T02:03:48.680Z,13.54
2018-07-20T02:04:48.718Z,13.51
2018-07-20T02:05:48.755Z,13.52
2018-07-20T02:06:48.792Z,13.52
2018-07-20T02:07:48.828Z,13.44
2018-07-20T02:08:48.871Z,13.41
2018-07-20T02:09:48.912Z,13.39
2018-07-20T02:10:48.941Z,13.41
2018-07-20T02:11:48.979Z,13.36
2018-07-20T02:12:49.015Z,13.38
2018-07-20T02:13:49.053Z,13.39
2018-07-20T02:14:49.089Z,13.33
2018-07-20T02:15:49.128Z,13.41
2018-07-20T02:16:49.163Z,13.42
2018-07-20T02:17:49.201Z,13.39
2018-07-20T02:18:49.239Z,13.44
2018-07-20T02:19:49.279Z,13.38
2018-07-20T02:20:49.321Z,13.42
2018-07-20T02:21:49.351Z,13.33
2018-07-20T02:22:49.386Z,13.30
2018-07-20T02:23:49.425Z,13.30
2018-07-20T02:24:49.462Z,13.17
2018-07-20T02:25:49.500Z,13.26
2018-07-20T02:26:49.535Z,13.17
2018-07-20T02:27:49.572Z,13.15
2018-07-20T02:28:49.616Z,13.10
2018-07-20T02:29:49.646Z,13.04
2018-07-20T02:30:49.686Z,13.11
2018-07-20T02:31:49.720Z,13.11
2018-07-20T02:32:49.757Z,13.05
2018-07-20T02:33:49.793Z,13.05
2018-07-20T02:34:49.836Z,13.03
2018-07-20T02:35:49.877Z,13.04
2018-07-20T02:36:49.904Z,12.95
2018-07-20T02:37:49.943Z,13.00
2018-07-20T02:38:49.980Z,12.96
2018-07-20T02:39:50.018Z,13.03
2018-07-20T02:40:50.054Z,12.93
2018-07-20T02:41:50.094Z,13.03
2018-07-20T02:42:50.127Z,13.03
2018-07-20T02:43:50.163Z,12.96
2018-07-20T02:44:50.204Z,12.97
2018-07-20T02:45:50.237Z,13.03
2018-07-20T02:46:50.275Z,12.97
2018-07-20T02:47:50.313Z,13.00
2018-07-20T02:48:50.349Z,13.00
2018-07-20T02:49:50.387Z,12.97
2018-07-20T02:50:50.428Z,13.03
2018-07-20T02:51:50.462Z,12.97
2018-07-20T02:52:50.502Z,12.97
2018-07-20T02:53:50.534Z,13.03
2018-07-20T02:54:50.582Z,13.01
2018-07-20T02:55:50.609Z,13.04
2018-07-20T02:56:50.648Z,12.97
2018-07-20T02:57:50.681Z,13.05
2018-07-20T02:58:50.727Z,12.93
2018-07-20T02:59:50.757Z,12.96
2018-07-20T03:00:50.793Z,13.00
2018-07-20T03:01:50.830Z,12.92
2018-07-20T03:02:50.865Z,13.01
2018-07-20T03:03:50.902Z,13.00
2018-07-20T03:04:50.939Z,12.95
2018-07-20T03:05:50.980Z,12.89
2018-07-20T03:06:51.016Z,12.97
2018-07-20T03:07:51.051Z,13.01
2018-07-20T03:08:51.091Z,13.03
2018-07-20T03:09:51.126Z,13.03
2018-07-20T03:10:51.213Z,13.03
2018-07-20T03:11:51.199Z,12.95
2018-07-20T03:12:51.235Z,13.03
2018-07-20T03:13:51.272Z,13.01
2018-07-20T03:14:51.310Z,12.87
2018-07-20T03:15:51.347Z,12.97
2018-07-20T03:16:51.383Z,12.92
2018-07-20T03:17:51.419Z,12.97
2018-07-20T03:18:51.460Z,13.05
2018-07-20T03:19:51.496Z,12.90
2018-07-20T03:20:51.531Z,12.93
2018-07-20T03:21:51.567Z,12.97
2018-07-20T03:22:51.606Z,13.00
2018-07-20T03:23:51.642Z,13.01
2018-07-20T03:24:51.678Z,13.03
2018-07-20T03:25:51.716Z,13.00
2018-07-20T03:26:51.760Z,13.00
2018-07-20T03:27:51.794Z,13.15
2018-07-20T03:28:51.826Z,13.03
2018-07-20T03:29:51.864Z,13.04
2018-07-20T03:30:51.899Z,13.08
2018-07-20T03:31:51.936Z,13.14
2018-07-20T03:32:52.027Z,13.03
2018-07-20T03:33:52.010Z,13.12
2018-07-20T03:34:52.047Z,13.11
2018-07-20T03:35:52.089Z,13.08
2018-07-20T03:36:52.120Z,13.22
2018-07-20T03:37:52.159Z,13.14
2018-07-20T03:38:52.193Z,13.12
2018-07-20T03:39:52.234Z,13.12
2018-07-20T03:40:52.266Z,13.11
2018-07-20T03:41:52.305Z,13.12
2018-07-20T03:42:52.341Z,13.17
2018-07-20T03:43:52.381Z,13.05
2018-07-20T03:44:52.413Z,13.14
2018-07-20T03:45:52.452Z,13.12
2018-07-20T03:46:52.489Z,13.20
2018-07-20T03:47:52.524Z,13.10
2018-07-20T03:48:52.580Z,13.14
2018-07-20T03:49:52.600Z,13.14
2018-07-20T03:50:52.635Z,13.19
2018-07-20T03:51:52.674Z,13.28
2018-07-20T03:52:52.710Z,13.28
2018-07-20T03:53:52.749Z,13.23
2018-07-20T03:54:52.785Z,13.28
2018-07-20T03:55:52.822Z,13.28
2018-07-20T03:56:52.855Z,13.26
2018-07-20T03:57:52.895Z,13.25
2018-07-20T03:58:52.930Z,13.26
2018-07-20T03:59:52.968Z,13.22
2018-07-20T04:00:53.005Z,13.19
2018-07-20T04:01:53.042Z,13.20
2018-07-20T04:02:53.079Z,13.25
2018-07-20T04:03:53.117Z,13.23
2018-07-20T04:04:53.153Z,13.32
2018-07-20T04:05:53.222Z,13.33
2018-07-20T04:06:53.228Z,13.38
2018-07-20T04:07:53.266Z,13.38
2018-07-20T04:08:53.301Z,13.45
2018-07-20T04:09:53.340Z,13.45
2018-07-20T04:10:53.374Z,13.48
2018-07-20T04:11:53.412Z,13.48
2018-07-20T04:12:53.451Z,13.52
2018-07-20T04:13:53.487Z,13.59
2018-07-20T04:14:53.531Z,13.55
2018-07-20T04:15:53.570Z,13.67
2018-07-20T04:16:53.596Z,13.63
2018-07-20T04:17:53.635Z,13.67
2018-07-20T04:18:53.690Z,13.62
2018-07-20T04:19:53.711Z,13.64
2018-07-20T04:20:53.746Z,13.69
2018-07-20T04:21:53.785Z,13.71
2018-07-20T04:22:53.822Z,13.71
2018-07-20T04:23:53.859Z,13.77
2018-07-20T04:24:53.895Z,13.70
2018-07-20T04:25:53.939Z,13.88
2018-07-20T04:26:53.970Z,13.87
2018-07-20T04:27:54.007Z,13.85
2018-07-20T04:28:54.043Z,13.82
2018-07-20T04:29:54.085Z,13.88
2018-07-20T04:30:54.123Z,13.85
2018-07-20T04:31:54.156Z,13.89
2018-07-20T04:32:54.194Z,13.92
2018-07-20T04:33:54.229Z,14.02
2018-07-20T04:34:54.276Z,13.96
2018-07-20T04:35:54.306Z,14.00
2018-07-20T04:36:54.341Z,13.95
2018-07-20T04:37:54.379Z,14.03
2018-07-20T04:38:54.418Z,14.02
2018-07-20T04:39:54.455Z,13.97
2018-07-20T04:40:54.491Z,14.00
2018-07-20T04:41:54.530Z,14.07
2018-07-20T04:42:54.566Z,14.10
2018-07-20T04:43:54.608Z,14.07
2018-07-20T04:44:54.644Z,14.20
2018-07-20T04:45:54.677Z,14.20
2018-07-20T04:46:54.716Z,14.17
2018-07-20T04:47:54.754Z,14.20
2018-07-20T04:48:54.791Z,14.20
2018-07-20T04:49:54.884Z,14.17
2018-07-20T04:50:54.874Z,14.22
2018-07-20T04:51:54.904Z,14.29
2018-07-20T04:52:54.944Z,14.25
2018-07-20T04:53:54.979Z,14.35
2018-07-20T04:54:55.018Z,14.32
2018-07-20T04:55:55.055Z,14.36
2018-07-20T04:56:55.091Z,14.32
2018-07-20T04:57:55.130Z,14.46
2018-07-20T04:58:55.262Z,14.39
2018-07-20T04:59:55.205Z,14.54
2018-07-20T05:00:55.242Z,14.55
2018-07-20T05:01:55.280Z,14.55
2018-07-20T05:02:55.315Z,14.50
2018-07-20T05:03:55.355Z,14.65
2018-07-20T05:04:55.392Z,14.65
2018-07-20T05:05:55.468Z,14.69
2018-07-20T05:06:55.469Z,14.73
2018-07-20T05:07:55.508Z,14.88
2018-07-20T05:08:55.543Z,14.88
2018-07-20T05:09:55.581Z,14.92
2018-07-20T05:10:55.618Z,15.01
2018-07-20T05:11:55.658Z,15.09
2018-07-20T05:12:55.693Z,14.99
2018-07-20T05:13:55.731Z,14.98
2018-07-20T05:14:55.771Z,15.03
2018-07-20T05:15:55.808Z,15.16
2018-07-20T05:16:55.847Z,15.16
2018-07-20T05:17:55.884Z,15.19
2018-07-20T05:18:55.920Z,15.16
2018-07-20T05:19:55.959Z,15.25
2018-07-20T05:20:55.997Z,15.27
2018-07-20T05:21:56.035Z,15.32
2018-07-20T05:22:56.172Z,15.29
2018-07-20T05:23:56.113Z,15.35
2018-07-20T05:24:56.149Z,15.50
2018-07-20T05:25:56.187Z,15.47
2018-07-20T05:26:56.225Z,15.51
2018-07-20T05:27:56.263Z,15.54
2018-07-20T05:28:56.302Z,15.54
2018-07-20T05:29:56.438Z,15.71
2018-07-20T05:30:56.381Z,15.75
2018-07-20T05:31:56.427Z,15.86
2018-07-20T05:32:56.451Z,16.01
2018-07-20T05:33:56.492Z,16.14
2018-07-20T05:34:56.531Z,16.11
2018-07-20T05:35:56.570Z,16.12
2018-07-20T05:36:56.608Z,16.14
2018-07-20T05:37:56.646Z,16.15
2018-07-20T05:38:56.681Z,16.11
2018-07-20T05:39:56.720Z,16.12
2018-07-20T05:40:56.758Z,16.23
2018-07-20T05:41:56.796Z,16.30
2018-07-20T05:42:56.835Z,16.28
2018-07-20T05:43:56.901Z,16.38
2018-07-20T05:44:56.916Z,16.43
2018-07-20T05:45:56.949Z,16.34
2018-07-20T05:46:56.988Z,16.48
2018-07-20T05:47:57.026Z,16.42
2018-07-20T05:48:57.064Z,16.45
2018-07-20T05:49:57.102Z,16.53
2018-07-20T05:50:57.141Z,16.60
2018-07-20T05:51:57.178Z,16.61
2018-07-20T05:52:57.217Z,16.75
2018-07-20T05:53:57.258Z,16.73
2018-07-20T05:54:57.295Z,16.88
2018-07-20T05:55:57.334Z,16.96
2018-07-20T05:56:57.371Z,16.98
2018-07-20T05:57:57.413Z,17.03
2018-07-20T05:58:57.449Z,17.01
2018-07-20T05:59:57.487Z,17.12
2018-07-20T06:00:57.525Z,17.23
2018-07-20T06:01:57.573Z,17.30
2018-07-20T06:02:57.604Z,17.40
2018-07-20T06:03:57.652Z,17.43
2018-07-20T06:04:57.689Z,17.52
2018-07-20T06:05:57.721Z,17.54
2018-07-20T06:06:57.758Z,17.59
2018-07-20T06:07:57.796Z,17.72
2018-07-20T06:08:57.838Z,17.81
2018-07-20T06:09:57.875Z,17.90
2018-07-20T06:10:57.912Z,17.93
2018-07-20T06:11:57.953Z,18.02
2018-07-20T06:12:57.988Z,18.05
2018-07-20T06:13:58.030Z,18.12
2018-07-20T06:14:58.068Z,18.21
2018-07-20T06:15:58.106Z,18.29
2018-07-20T06:16:58.152Z,18.21
2018-07-20T06:17:58.183Z,18.30
2018-07-20T06:18:58.295Z,18.42
2018-07-20T06:19:58.263Z,18.51
2018-07-20T06:20:58.302Z,18.54
2018-07-20T06:21:58.340Z,18.55
2018-07-20T06:22:58.382Z,18.70
2018-07-20T06:23:58.473Z,18.67
2018-07-20T06:24:58.460Z,18.72
2018-07-20T06:25:58.500Z,18.81
2018-07-20T06:26:58.538Z,18.82
2018-07-20T06:27:58.577Z,18.90
2018-07-20T06:28:58.616Z,18.95
2018-07-20T06:29:58.656Z,18.92
2018-07-20T06:30:58.694Z,19.06
2018-07-20T06:31:58.736Z,19.14
2018-07-20T06:32:58.774Z,19.21
2018-07-20T06:33:58.812Z,19.18
2018-07-20T06:34:58.857Z,19.26
2018-07-20T06:35:58.897Z,19.46
2018-07-20T06:36:58.931Z,19.39
2018-07-20T06:37:58.979Z,19.46
2018-07-20T06:38:59.013Z,19.50
2018-07-20T06:39:59.055Z,19.68
2018-07-20T06:40:59.094Z,19.73
2018-07-20T06:41:59.130Z,19.76
2018-07-20T06:42:59.171Z,19.83
2018-07-20T06:43:59.211Z,19.92
2018-07-20T06:44:59.250Z,19.96
2018-07-20T06:45:59.340Z,20.01
2018-07-20T06:46:59.345Z,20.03
2018-07-20T06:47:59.370Z,20.21
2018-07-20T06:48:59.411Z,20.28
2018-07-20T06:49:59.450Z,20.36
2018-07-20T06:50:59.498Z,20.52
2018-07-20T06:51:59.532Z,20.58
2018-07-20T06:52:59.574Z,20.64
2018-07-20T06:53:59.611Z,20.69
2018-07-20T06:54:59.660Z,20.80
2018-07-20T06:55:59.694Z,20.84
2018-07-20T06:56:59.731Z,20.84
2018-07-20T06:57:59.771Z,21.01
2018-07-20T06:58:59.813Z,21.01
2018-07-20T06:59:59.854Z,21.16
2018-07-20T07:00:59.892Z,21.13
2018-07-20T07:01:59.932Z,21.31
2018-07-20T07:02:59.980Z,21.35
2018-07-20T07:04:00.017Z,21.43
2018-07-20T07:05:00.056Z,21.53
2018-07-20T07:06:00.101Z,21.59
2018-07-20T07:07:00.138Z,21.61
2018-07-20T07:08:00.178Z,21.69
2018-07-20T07:09:00.220Z,21.62
2018-07-20T07:10:00.260Z,21.82
2018-07-20T07:11:00.301Z,21.88
2018-07-20T07:12:00.341Z,21.98
2018-07-20T07:13:00.380Z,21.91
2018-07-20T07:14:00.421Z,22.03
2018-07-20T07:15:00.478Z,22.17
2018-07-20T07:16:00.503Z,22.27
2018-07-20T07:17:00.544Z,22.24
2018-07-20T07:18:00.587Z,22.33
2018-07-20T07:19:00.628Z,22.42
2018-07-20T07:20:00.669Z,22.51
2018-07-20T07:21:00.708Z,22.64
2018-07-20T07:22:00.752Z,22.68
2018-07-20T07:23:00.790Z,22.70
2018-07-20T07:24:00.833Z,22.80
2018-07-20T07:25:00.874Z,22.83
2018-07-20T07:26:01.051Z,22.86
2018-07-20T07:27:00.958Z,23.00
2018-07-20T07:28:00.999Z,23.04
2018-07-20T07:29:01.040Z,23.10
2018-07-20T07:30:01.080Z,23.15
2018-07-20T07:31:01.121Z,23.22
2018-07-20T07:32:01.168Z,23.19
2018-07-20T07:33:01.207Z,23.28
2018-07-20T07:34:01.251Z,23.28
2018-07-20T07:35:01.292Z,23.39
2018-07-20T07:36:01.332Z,23.40
2018-07-20T07:37:01.377Z,23.47
2018-07-20T07:38:01.417Z,23.51
2018-07-20T07:39:01.459Z,23.54
2018-07-20T07:40:01.499Z,23.63
2018-07-20T07:41:01.549Z,23.63
2018-07-20T07:42:01.625Z,23.72
2018-07-20T07:43:01.633Z,23.87
2018-07-20T07:44:01.666Z,23.75
2018-07-20T07:45:01.712Z,23.87
2018-07-20T07:46:01.749Z,24.03
2018-07-20T07:47:01.791Z,24.05
2018-07-20T07:48:01.842Z,24.12
2018-07-20T07:49:01.877Z,24.21
2018-07-20T07:50:01.922Z,24.25
2018-07-20T07:51:01.960Z,24.25
2018-07-20T07:52:02.002Z,24.35
2018-07-20T07:53:02.046Z,24.42
2018-07-20T07:54:02.087Z,24.37
2018-07-20T07:55:02.129Z,24.37
2018-07-20T07:56:02.170Z,24.39
2018-07-20T07:57:02.220Z,24.42
2018-07-20T07:58:02.257Z,24.46
2018-07-20T07:59:02.304Z,24.55
2018-07-20T08:00:02.342Z,24.58
2018-07-20T08:01:02.382Z,24.53
2018-07-20T08:02:02.426Z,24.58
2018-07-20T08:03:02.529Z,24.67
2018-07-20T08:04:02.511Z,24.73
2018-07-20T08:05:02.554Z,24.73
2018-07-20T08:06:02.599Z,24.83
2018-07-20T08:07:02.637Z,24.96
2018-07-20T08:08:02.690Z,24.95
2018-07-20T08:09:02.723Z,24.91
2018-07-20T08:10:02.930Z,25.00
2018-07-20T08:11:02.808Z,25.08
2018-07-20T08:12:02.850Z,25.17
2018-07-20T08:13:02.892Z,25.14
2018-07-20T08:14:02.933Z,25.18
2018-07-20T08:15:02.978Z,25.15
2018-07-20T08:16:03.024Z,25.20
2018-07-20T08:17:03.061Z,25.25
2018-07-20T08:18:03.105Z,25.35
2018-07-20T08:19:03.149Z,25.36
2018-07-20T08:20:03.192Z,25.51
2018-07-20T08:21:03.234Z,25.55
2018-07-20T08:22:03.276Z,25.64
2018-07-20T08:23:03.323Z,25.65
2018-07-20T08:24:03.365Z,25.70
2018-07-20T08:25:03.406Z,25.75
2018-07-20T08:26:03.451Z,25.79
2018-07-20T08:27:03.496Z,25.83
2018-07-20T08:28:03.536Z,25.92
2018-07-20T08:29:03.581Z,25.85
2018-07-20T08:30:03.622Z,25.95
2018-07-20T08:31:03.665Z,25.97
2018-07-20T08:32:03.712Z,26.05
2018-07-20T08:33:03.754Z,26.05
2018-07-20T08:34:03.849Z,26.02
2018-07-20T08:35:03.848Z,26.07
2018-07-20T08:36:03.881Z,26.01
2018-07-20T08:37:03.924Z,26.13
2018-07-20T08:38:03.971Z,26.21
2018-07-20T08:39:04.015Z,26.18
2018-07-20T08:40:04.063Z,26.17
2018-07-20T08:41:04.115Z,26.20
2018-07-20T08:42:04.143Z,26.20
2018-07-20T08:43:04.183Z,26.26
2018-07-20T08:44:04.228Z,26.18
2018-07-20T08:45:04.308Z,26.32
2018-07-20T08:46:04.317Z,26.37
2018-07-20T08:47:04.360Z,26.37
2018-07-20T08:48:04.402Z,26.37
2018-07-20T08:49:04.444Z,26.54
2018-07-20T08:50:04.497Z,26.57
2018-07-20T08:51:04.532Z,26.48
2018-07-20T08:52:04.576Z,26.63
2018-07-20T08:53:04.617Z,26.60
2018-07-20T08:54:04.697Z,26.52
2018-07-20T08:55:04.707Z,26.47
2018-07-20T08:56:04.750Z,26.65
2018-07-20T08:57:04.792Z,26.55
2018-07-20T08:58:04.837Z,26.54
2018-07-20T08:59:04.985Z,26.51
2018-07-20T09:00:04.961Z,26.65
2018-07-20T09:01:04.966Z,26.62
2018-07-20T09:02:05.011Z,26.77
2018-07-20T09:03:05.056Z,26.67
2018-07-20T09:04:05.102Z,26.70
2018-07-20T09:05:05.139Z,26.75
2018-07-20T09:06:05.186Z,26.69
2018-07-20T09:07:05.228Z,26.63
2018-07-20T09:08:05.271Z,26.72
2018-07-20T09:09:05.317Z,26.73
2018-07-20T09:10:05.366Z,26.67
2018-07-20T09:11:05.402Z,26.65
2018-07-20T09:12:05.446Z,26.82
2018-07-20T09:13:05.488Z,26.81
2018-07-20T09:14:05.533Z,26.88
2018-07-20T09:15:05.576Z,27.04
2018-07-20T09:16:05.620Z,27.19
2018-07-20T09:17:05.662Z,27.21
2018-07-20T09:18:05.710Z,27.32
2018-07-20T09:19:05.750Z,27.28
2018-07-20T09:20:05.795Z,27.32
2018-07-20T09:21:05.924Z,27.36
2018-07-20T09:22:05.888Z,27.44
2018-07-20T09:23:05.927Z,27.57
2018-07-20T09:24:05.971Z,27.62
2018-07-20T09:25:06.065Z,27.55
2018-07-20T09:26:06.064Z,27.67
2018-07-20T09:27:06.102Z,27.66
2018-07-20T09:28:06.152Z,27.77
2018-07-20T09:29:06.190Z,27.75
2018-07-20T09:30:06.233Z,27.78
2018-07-20T09:31:06.278Z,27.72
2018-07-20T09:32:06.323Z,27.84
2018-07-20T09:33:06.364Z,27.84
2018-07-20T09:34:06.434Z,27.81
2018-07-20T09:35:06.455Z,27.78
2018-07-20T09:36:06.506Z,27.92
2018-07-20T09:37:06.540Z,27.88
2018-07-20T09:38:06.584Z,27.90
2018-07-20T09:39:06.639Z,27.97
2018-07-20T09:40:06.673Z,27.93
2018-07-20T09:41:06.717Z,27.97
2018-07-20T09:42:06.763Z,27.92
2018-07-20T09:43:06.812Z,27.90
2018-07-20T09:44:06.849Z,27.90
2018-07-20T09:45:06.893Z,27.92
2018-07-20T09:46:06.940Z,27.88
2018-07-20T09:47:06.987Z,27.97
2018-07-20T09:48:07.027Z,27.90
2018-07-20T09:49:07.074Z,27.88
2018-07-20T09:50:07.117Z,27.92
2018-07-20T09:51:07.159Z,28.06
2018-07-20T09:52:07.205Z,28.02
2018-07-20T09:53:07.257Z,28.18
2018-07-20T09:54:07.294Z,28.11
2018-07-20T09:55:07.355Z,28.02
2018-07-20T09:56:07.385Z,28.07
2018-07-20T09:57:07.428Z,28.04
2018-07-20T09:58:07.472Z,28.19
2018-07-20T09:59:07.516Z,28.19
2018-07-20T10:00:07.566Z,28.30
2018-07-20T10:01:07.603Z,28.36
2018-07-20T10:02:07.648Z,28.37
2018-07-20T10:03:07.693Z,28.41
2018-07-20T10:04:07.748Z,28.40
2018-07-20T10:05:07.835Z,28.46
2018-07-20T10:06:07.824Z,28.34
2018-07-20T10:07:07.873Z,28.29
2018-07-20T10:08:07.915Z,28.36
2018-07-20T10:09:07.959Z,28.54
2018-07-20T10:10:08.004Z,28.51
2018-07-20T10:11:08.048Z,28.51
2018-07-20T10:12:08.097Z,28.51
2018-07-20T10:13:08.138Z,28.55
2018-07-20T10:14:08.191Z,28.52
2018-07-20T10:15:08.229Z,28.44
2018-07-20T10:16:08.271Z,28.40
2018-07-20T10:17:08.316Z,28.44
2018-07-20T10:18:08.363Z,28.55
2018-07-20T10:19:08.443Z,28.54
2018-07-20T10:20:08.453Z,28.54
2018-07-20T10:21:08.499Z,28.55
2018-07-20T10:22:08.545Z,28.67
2018-07-20T10:23:08.590Z,28.62
2018-07-20T10:24:08.630Z,28.55
2018-07-20T10:25:08.675Z,28.66
2018-07-20T10:26:08.722Z,28.55
2018-07-20T10:27:48.462Z,28.62
2018-07-20T10:28:48.496Z,28.62
2018-07-20T10:29:48.540Z,28.68
2018-07-20T10:30:48.586Z,28.67
2018-07-20T10:31:48.627Z,28.81
2018-07-20T10:32:48.673Z,28.76
2018-07-20T10:33:48.718Z,28.88
2018-07-20T10:34:48.764Z,28.93
2018-07-20T10:35:48.807Z,28.86
2018-07-20T10:36:48.853Z,29.06
2018-07-20T10:37:48.904Z,29.06
2018-07-20T10:38:48.941Z,29.06
2018-07-20T10:39:48.985Z,29.05
2018-07-20T10:40:49.035Z,29.04
2018-07-20T10:41:49.079Z,28.89
2018-07-20T10:42:49.119Z,28.83
2018-07-20T10:43:49.174Z,28.73
2018-07-20T10:44:49.209Z,28.74
2018-07-20T10:45:49.257Z,28.61
2018-07-20T10:46:49.335Z,28.64
2018-07-20T10:47:49.346Z,28.77
2018-07-20T10:48:49.388Z,28.76
2018-07-20T10:49:49.440Z,28.83
2018-07-20T10:50:49.478Z,29.08
2018-07-20T10:51:49.526Z,29.05
2018-07-20T10:52:49.575Z,29.15
2018-07-20T10:53:49.613Z,29.24
2018-07-20T10:54:49.657Z,29.26
2018-07-20T10:55:49.713Z,29.42
2018-07-20T10:56:49.748Z,29.53
2018-07-20T10:57:49.793Z,29.55
2018-07-20T10:58:49.846Z,29.48
2018-07-20T10:59:49.882Z,29.34
2018-07-20T11:00:49.929Z,29.37
2018-07-20T11:01:49.973Z,29.30
2018-07-20T11:02:50.017Z,29.28
2018-07-20T11:03:50.061Z,29.45
2018-07-20T11:04:50.107Z,29.43
2018-07-20T11:05:50.161Z,29.42
2018-07-20T11:06:50.198Z,29.46
2018-07-20T11:07:50.242Z,29.48
2018-07-20T11:08:50.287Z,29.60
2018-07-20T11:09:50.336Z,29.48
2018-07-20T11:10:50.378Z,29.57
2018-07-20T11:11:50.443Z,29.60
2018-07-20T11:12:50.468Z,29.52
2018-07-20T11:13:50.514Z,29.60
2018-07-20T11:14:50.559Z,29.63
2018-07-20T11:15:50.604Z,29.60
2018-07-20T11:16:50.654Z,29.68
2018-07-20T11:17:50.695Z,29.65
2018-07-20T11:18:50.739Z,29.71
2018-07-20T11:19:50.785Z,29.73
2018-07-20T11:20:50.834Z,29.61
2018-07-20T11:21:50.874Z,29.51
2018-07-20T11:22:50.927Z,29.67
2018-07-20T11:23:50.972Z,29.68
2018-07-20T11:24:51.010Z,29.70
2018-07-20T11:25:51.057Z,29.68
2018-07-20T11:26:51.102Z,29.61
2018-07-20T11:27:51.146Z,29.52
2018-07-20T11:28:51.191Z,29.65
2018-07-20T11:29:51.238Z,29.64
2018-07-20T11:30:51.283Z,29.71
2018-07-20T11:31:51.328Z,29.68
2018-07-20T11:32:51.375Z,29.73
2018-07-20T11:33:51.421Z,29.71
2018-07-20T11:34:51.467Z,29.76
2018-07-20T11:35:51.511Z,29.71
2018-07-20T11:36:51.556Z,29.71
2018-07-20T11:37:51.602Z,29.76
2018-07-20T11:38:51.647Z,29.79
2018-07-20T11:39:51.695Z,29.83
2018-07-20T11:40:51.740Z,29.86
2018-07-20T11:41:51.794Z,29.82
2018-07-20T11:42:51.830Z,29.82
2018-07-20T11:43:51.875Z,29.82
2018-07-20T11:44:51.921Z,29.83
2018-07-20T11:45:51.970Z,29.73
2018-07-20T11:46:52.017Z,29.74
2018-07-20T11:47:52.059Z,29.82
2018-07-20T11:48:52.102Z,29.74
2018-07-20T11:49:52.149Z,29.74
2018-07-20T11:50:52.202Z,29.82
2018-07-20T11:51:52.245Z,30.00
2018-07-20T11:52:52.285Z,30.02
2018-07-20T11:53:52.331Z,30.24
2018-07-20T11:54:52.384Z,30.08
2018-07-20T11:55:52.427Z,30.13
2018-07-20T11:56:52.469Z,30.42
2018-07-20T11:57:52.515Z,30.42
2018-07-20T11:58:52.559Z,30.53
2018-07-20T11:59:52.615Z,30.75
2018-07-20T12:00:52.652Z,30.82
2018-07-20T12:01:52.739Z,30.86
2018-07-20T12:02:52.744Z,30.76
2018-07-20T12:03:52.797Z,30.76
2018-07-20T12:04:52.844Z,30.79
2018-07-20T12:05:52.887Z,30.55
2018-07-20T12:06:52.967Z,30.55
2018-07-20T12:07:52.983Z,30.46
2018-07-20T12:08:53.027Z,30.39
2018-07-20T12:09:53.067Z,30.46
2018-07-20T12:10:53.112Z,30.61
2018-07-20T12:11:53.162Z,30.73
2018-07-20T12:12:53.204Z,30.83
2018-07-20T12:13:53.252Z,30.89
2018-07-20T12:14:53.300Z,30.98
2018-07-20T12:15:53.343Z,31.04
2018-07-20T12:16:53.389Z,31.25
2018-07-20T12:17:53.438Z,31.16
2018-07-20T12:18:53.526Z,31.29
2018-07-20T12:19:53.529Z,31.20
2018-07-20T12:20:53.578Z,30.91
2018-07-20T12:21:53.638Z,30.86
2018-07-20T12:22:53.668Z,30.89
2018-07-20T12:23:53.716Z,30.91
2018-07-20T12:24:53.762Z,30.98
2018-07-20T12:25:53.809Z,31.10
2018-07-20T12:26:53.854Z,31.14
2018-07-20T12:27:53.902Z,31.20
2018-07-20T12:28:53.946Z,30.95
2018-07-20T12:29:53.995Z,30.98
2018-07-20T12:30:54.040Z,31.21
2018-07-20T12:31:54.087Z,30.99
2018-07-20T12:32:54.137Z,30.99
2018-07-20T12:33:54.232Z,30.94
2018-07-20T12:34:54.236Z,30.88
2018-07-20T12:35:54.278Z,30.82
2018-07-20T12:36:54.320Z,30.92
2018-07-20T12:37:54.368Z,30.95
2018-07-20T12:38:54.419Z,31.01
2018-07-20T12:39:54.460Z,30.99
2018-07-20T12:40:54.504Z,31.17
2018-07-20T12:41:54.557Z,31.29
2018-07-20T12:42:54.597Z,31.39
2018-07-20T12:43:54.643Z,31.41
2018-07-20T12:44:54.690Z,31.44
2018-07-20T12:45:54.737Z,31.38
2018-07-20T12:46:54.784Z,31.41
2018-07-20T12:47:54.831Z,31.35
2018-07-20T12:48:54.877Z,31.41
2018-07-20T12:49:54.924Z,31.48
2018-07-20T12:50:54.971Z,31.53
2018-07-20T12:51:55.016Z,31.54
2018-07-20T12:52:55.066Z,31.51
2018-07-20T12:53:55.111Z,31.61